Главная страница
METAR-TAF:

METAR-TAF

Аэропорты :

Fort Belvoir, Виргиния, США

широта: 38-43N, долгота: 077-11W, высота над уровнем моря: 21 м

Текущие метеонаблюдения

Эта сводка был подготовлена 43 минут назад, в 01:56 UTC
Ветер 10 Узел от северно-северо-западный с порывами до 18 Узел
Температура 1°C
Влажность 51%
Давление 1024 hPa
Видимость: 16.1 км
небольшая облачность на высоте 7000 фута

METAR: KDAA 130156Z AUTO 34010G18KT 10SM FEW070 01/M08 A3023 RMK AO2 SLP240 T00071085 $

Время: 21:39 (02:39 UTC)

Прогноз

Эта сводка был подготовлена 39 минут назад, в 02:00 UTC
Прогноз действительный с 13-го 02 UTC до 14-го 08 UTC
Ветер 9 Узел от северно-северо-западный
Видимость: 1310 м
небольшая облачность на высоте 3000 фута

TAF: KDAA 130200Z 1302/1408 34009KT 9999 FEW030 510053 510753 QNH3022INS TX01/1317Z TNM03/1308Z LAST NO AMDS AFT 1302 NEXT 1310

Метеонаблюдения и прогнозы для более 4000 аэропортов (сводки METAR и TAF).

Имеющиеся станции представлены на карте желтыми и красными точками.

Чтобы увидеть название станции, наведите на нее мышь.

Затем щелкните, чтобы увидеть метеонаблюдения и метеопрогнозы.

Управление картой: чтобы увеличить масштаб, щелкните зеленые кнопки с черным крестиком; чтобы уменьшить масштаб, щелкните зеленую кнопку с тире; для просмотра соседних карт щелкайте зеленые стрелки.


METAR-TAF: